Time;durP1;ratioP1;P1;durP2;ratioP2;P2;SDS_P1;SDS_P2;PMS_P1;PMS_P2;Temp;Humidity;BMP_temperature;BMP_pressure;BME280_temperature;BME280_humidity;BME280_pressure;Samples;Min_cycle;Max_cycle;Signal;HPM_P1;HPM_P2
2023/11/11 00:02:06;;;;;;;7.07;3.08;;;5.80;99.90;;;;;;20638302;28;20061;-41
2023/11/11 00:12:07;;;;;;;9.02;4.10;;;5.80;99.90;;;;;;20638138;28;20041;-41
2023/11/11 00:22:10;;;;;;;7.25;3.92;;;5.80;99.90;;;;;;20631396;28;20112;-41
2023/11/11 00:32:10;;;;;;;7.22;3.40;;;5.70;99.90;;;;;;20631781;28;20374;-41
2023/11/11 00:42:11;;;;;;;4.25;1.90;;;5.70;99.90;;;;;;20629990;28;20031;-41
2023/11/11 00:52:11;;;;;;;6.07;2.05;;;6.00;99.90;;;;;;20636513;28;20037;-41
2023/11/11 01:02:12;;;;;;;8.85;2.22;;;6.40;99.90;;;;;;20637416;28;20133;-41
2023/11/11 01:12:12;;;;;;;9.40;2.22;;;6.80;99.90;;;;;;20632072;28;20363;-41
2023/11/11 01:22:13;;;;;;;4.85;1.30;;;6.90;99.90;;;;;;20637354;28;20124;-41
2023/11/11 01:32:14;;;;;;;3.58;0.60;;;6.80;99.90;;;;;;20634074;28;20066;-41
2023/11/11 01:42:18;;;;;;;1.90;0.68;;;6.60;99.90;;;;;;20638569;28;20053;-41
2023/11/11 01:52:19;;;;;;;4.22;0.80;;;6.60;99.90;;;;;;20629802;28;20073;-41
2023/11/11 02:02:20;;;;;;;6.20;0.65;;;6.60;99.90;;;;;;20653279;28;20520;-41
2023/11/11 02:12:21;;;;;;;3.55;0.65;;;6.50;99.90;;;;;;20650910;28;20882;-41
2023/11/11 02:22:22;;;;;;;2.33;0.60;;;6.30;99.90;;;;;;20654527;28;20887;-41
2023/11/11 02:32:22;;;;;;;1.98;0.47;;;6.20;99.90;;;;;;20648955;28;20069;-41
2023/11/11 02:42:23;;;;;;;3.53;1.15;;;6.00;99.90;;;;;;20656319;28;20146;-41
2023/11/11 02:52:23;;;;;;;2.42;0.43;;;5.90;99.90;;;;;;20646314;28;20064;-41
2023/11/11 03:02:25;;;;;;;4.10;0.70;;;5.80;99.90;;;;;;20641548;28;20445;-41
2023/11/11 03:12:26;;;;;;;6.47;1.60;;;5.90;99.90;;;;;;20648160;28;20320;-41
2023/11/11 03:22:26;;;;;;;5.75;0.90;;;6.10;99.90;;;;;;20648217;28;20121;-41
2023/11/11 03:32:28;;;;;;;5.68;1.27;;;6.30;99.90;;;;;;20641149;28;20042;-41
2023/11/11 03:42:30;;;;;;;7.68;1.35;;;6.30;99.90;;;;;;20645370;28;20059;-41
2023/11/11 03:52:31;;;;;;;2.75;0.95;;;6.50;99.90;;;;;;20650125;28;20129;-41
2023/11/11 04:02:31;;;;;;;4.03;0.90;;;6.60;99.90;;;;;;20645460;28;20460;-41
2023/11/11 04:12:32;;;;;;;5.53;1.40;;;6.70;99.90;;;;;;20640516;28;20382;-40
2023/11/11 04:22:32;;;;;;;4.28;1.42;;;6.70;99.90;;;;;;20660438;28;20044;-41
2023/11/11 04:32:36;;;;;;;5.60;1.20;;;6.80;99.90;;;;;;20663474;28;20473;-41
2023/11/11 04:42:38;;;;;;;4.70;1.20;;;6.80;99.90;;;;;;20663173;28;20129;-41
2023/11/11 04:52:39;;;;;;;6.18;0.88;;;6.70;99.90;;;;;;20663530;28;20044;-40
2023/11/11 05:02:40;;;;;;;6.57;1.23;;;6.80;99.90;;;;;;20650487;28;20768;-42
2023/11/11 05:12:41;;;;;;;4.85;0.80;;;6.70;99.90;;;;;;20637421;28;20066;-41
2023/11/11 05:22:42;;;;;;;6.45;1.10;;;6.60;99.90;;;;;;20636185;28;20038;-41
2023/11/11 05:32:42;;;;;;;7.18;1.55;;;6.60;99.90;;;;;;20638007;28;20470;-41
2023/11/11 05:42:44;;;;;;;7.65;1.73;;;6.70;99.90;;;;;;20645056;28;20048;-41
2023/11/11 05:52:44;;;;;;;3.92;1.10;;;6.70;99.90;;;;;;20634464;28;20100;-40
2023/11/11 06:02:45;;;;;;;2.50;0.63;;;6.80;99.90;;;;;;20642069;28;20037;-41
2023/11/11 06:12:47;;;;;;;3.58;0.80;;;6.90;99.90;;;;;;20647614;28;21114;-41
2023/11/11 06:22:49;;;;;;;2.75;0.60;;;6.80;99.90;;;;;;20642051;28;20108;-41
2023/11/11 06:32:50;;;;;;;2.65;0.90;;;6.70;99.90;;;;;;20636817;28;20686;-41
2023/11/11 06:42:54;;;;;;;2.60;0.32;;;6.70;99.90;;;;;;20653918;28;20049;-42
2023/11/11 06:52:55;;;;;;;1.83;0.50;;;6.60;99.90;;;;;;20649880;28;20095;-41
2023/11/11 07:02:56;;;;;;;1.30;0.50;;;6.60;99.90;;;;;;20636063;28;20037;-41
2023/11/11 07:12:57;;;;;;;2.03;0.73;;;6.40;99.90;;;;;;20634421;28;20038;-41
2023/11/11 07:22:59;;;;;;;1.52;0.50;;;6.50;99.90;;;;;;20645195;28;20584;-42
2023/11/11 07:32:59;;;;;;;3.30;0.90;;;6.60;99.90;;;;;;20624010;28;20049;-41
2023/11/11 07:43:00;;;;;;;5.10;1.03;;;6.50;99.90;;;;;;20629180;28;20180;-41
2023/11/11 07:53:01;;;;;;;3.28;0.88;;;6.40;99.90;;;;;;20634931;28;20465;-41
2023/11/11 08:03:05;;;;;;;3.38;0.80;;;6.40;99.90;;;;;;20647290;28;20559;-41
2023/11/11 08:13:06;;;;;;;3.38;0.70;;;6.40;99.90;;;;;;20649603;28;20050;-41
2023/11/11 08:23:06;;;;;;;4.38;0.90;;;6.80;99.90;;;;;;20663282;28;20053;-42
2023/11/11 08:33:08;;;;;;;3.15;0.60;;;7.00;99.90;;;;;;20658465;28;20061;-41
2023/11/11 08:43:09;;;;;;;4.07;0.60;;;6.90;99.90;;;;;;20658647;28;20497;-41
2023/11/11 08:53:10;;;;;;;4.53;0.98;;;6.80;99.90;;;;;;20646866;28;20042;-41
2023/11/11 09:03:11;;;;;;;4.25;1.02;;;6.70;99.90;;;;;;20648654;28;20513;-41
2023/11/11 09:13:13;;;;;;;4.25;1.23;;;6.80;99.90;;;;;;20654892;28;20386;-41
2023/11/11 09:23:13;;;;;;;6.57;1.60;;;6.80;99.90;;;;;;20649290;28;20038;-41
2023/11/11 09:33:14;;;;;;;7.97;2.20;;;7.00;99.90;;;;;;20662708;28;20038;-41
2023/11/11 09:43:15;;;;;;;7.40;3.00;;;7.20;99.90;;;;;;20668486;28;20038;-41
2023/11/11 09:53:17;;;;;;;8.80;2.67;;;7.20;99.90;;;;;;20670540;28;20049;-41
2023/11/11 10:03:17;;;;;;;5.55;3.53;;;7.40;99.90;;;;;;20667986;28;20092;-42
2023/11/11 10:13:20;;;;;;;10.07;3.65;;;7.90;99.90;;;;;;20634098;28;20031;-41
2023/11/11 10:23:21;;;;;;;3.75;1.75;;;8.30;99.90;;;;;;20638974;28;20133;-41
2023/11/11 10:33:21;;;;;;;3.60;1.25;;;8.30;99.90;;;;;;20632764;28;20050;-41
2023/11/11 10:43:26;;;;;;;4.78;1.50;;;8.60;99.90;;;;;;20636810;28;20054;-41
2023/11/11 10:53:28;;;;;;;4.80;1.15;;;8.70;99.90;;;;;;20633309;28;20610;-42
2023/11/11 11:03:29;;;;;;;7.18;1.63;;;9.10;99.90;;;;;;20632885;28;20175;-41
2023/11/11 11:13:31;;;;;;;3.67;1.00;;;9.20;99.90;;;;;;20631670;28;20049;-41
2023/11/11 11:23:39;;;;;;;4.45;0.90;;;9.40;96.20;;;;;;20630344;28;20036;-41
2023/11/11 11:33:41;;;;;;;4.77;0.90;;;10.30;90.30;;;;;;20663099;28;20042;-42
2023/11/11 11:43:42;;;;;;;3.95;0.70;;;11.20;33.90;;;;;;20666815;28;20505;-41
2023/11/11 11:53:43;;;;;;;8.48;1.88;;;11.70;1.00;;;;;;20658027;28;20049;-41
2023/11/11 12:03:44;;;;;;;3.47;0.65;;;12.00;1.00;;;;;;20630937;28;20125;-42
2023/11/11 12:13:44;;;;;;;3.40;0.60;;;12.30;1.00;;;;;;20633018;28;20442;-42
2023/11/11 12:23:46;;;;;;;2.35;1.20;;;12.50;1.00;;;;;;20598769;28;20743;-42
2023/11/11 12:33:47;;;;;;;3.75;1.00;;;12.10;1.00;;;;;;20634074;28;20050;-42
2023/11/11 12:43:56;;;;;;;2.95;0.90;;;11.20;1.00;;;;;;20642421;28;20076;-42
2023/11/11 12:53:57;;;;;;;5.47;1.08;;;10.60;1.00;;;;;;20623638;28;20434;-42
2023/11/11 13:04:08;;;;;;;3.20;0.80;;;10.50;1.00;;;;;;20652045;28;20449;-42
2023/11/11 13:14:11;;;;;;;5.70;1.20;;;10.80;1.00;;;;;;20638920;28;22068;-42
2023/11/11 13:24:11;;;;;;;2.70;0.85;;;11.00;1.00;;;;;;20667395;28;20367;-42
2023/11/11 13:34:12;;;;;;;3.25;0.75;;;10.60;1.00;;;;;;20670519;28;20415;-42
2023/11/11 13:44:14;;;;;;;2.58;0.93;;;10.20;1.00;;;;;;20663929;28;20322;-42
2023/11/11 13:54:15;;;;;;;5.18;1.13;;;10.00;1.00;;;;;;20665079;28;20486;-42
2023/11/11 14:04:15;;;;;;;4.68;0.65;;;9.80;1.00;;;;;;20667457;28;20370;-41
2023/11/11 14:14:16;;;;;;;3.13;0.60;;;9.60;1.00;;;;;;20664056;28;20133;-42
2023/11/11 14:24:18;;;;;;;3.63;1.52;;;9.40;1.00;;;;;;20666870;28;20042;-42
2023/11/11 14:34:19;;;;;;;2.53;1.13;;;9.50;1.00;;;;;;20661779;28;20046;-41
2023/11/11 14:44:20;;;;;;;5.38;1.35;;;9.70;1.00;;;;;;20663231;28;20201;-41
2023/11/11 14:54:21;;;;;;;3.70;1.50;;;9.50;1.00;;;;;;20663463;28;20046;-42
2023/11/11 15:04:21;;;;;;;4.53;1.10;;;9.40;1.00;;;;;;20661069;28;20804;-41
2023/11/11 15:14:22;;;;;;;3.88;1.58;;;9.40;1.00;;;;;;20661320;28;20042;-42
2023/11/11 15:24:24;;;;;;;5.70;1.70;;;9.50;1.00;;;;;;20660446;28;20038;-42
2023/11/11 15:34:25;;;;;;;5.43;2.00;;;9.50;1.00;;;;;;20658465;28;20046;-41
2023/11/11 15:44:29;;;;;;;7.10;1.90;;;9.40;6.50;;;;;;20661761;28;20038;-41
2023/11/11 15:54:29;;;;;;;3.97;1.58;;;9.30;12.10;;;;;;20660303;28;20061;-42
2023/11/11 16:04:30;;;;;;;5.70;2.10;;;9.30;1.00;;;;;;20658066;28;20035;-42
2023/11/11 16:14:30;;;;;;;5.63;2.17;;;8.90;17.20;;;;;;20657382;28;20490;-42
2023/11/11 16:24:31;;;;;;;4.60;2.42;;;8.70;28.30;;;;;;20673238;28;20393;-42
2023/11/11 16:34:32;;;;;;;6.72;2.90;;;8.60;32.60;;;;;;20652129;28;20065;-41
2023/11/11 16:44:32;;;;;;;23.23;11.80;;;8.60;40.80;;;;;;20651469;28;20026;-41
2023/11/11 16:54:33;;;;;;;8.00;3.33;;;8.70;39.60;;;;;;20674839;28;20224;-42
2023/11/11 17:04:33;;;;;;;5.15;2.75;;;8.70;30.20;;;;;;20672385;28;20103;-41
2023/11/11 17:14:35;;;;;;;6.40;2.72;;;8.70;24.00;;;;;;20649478;28;20048;-42
2023/11/11 17:24:36;;;;;;;4.28;2.40;;;8.80;17.20;;;;;;20671279;28;20092;-42
2023/11/11 17:34:36;;;;;;;5.60;2.95;;;9.00;5.70;;;;;;20664936;28;20033;-42
2023/11/11 17:44:41;;;;;;;8.43;4.63;;;8.90;3.30;;;;;;20673695;28;20042;-42
2023/11/11 17:54:41;;;;;;;7.45;3.40;;;8.90;14.40;;;;;;20662652;28;20109;-42
2023/11/11 18:04:42;;;;;;;10.25;6.68;;;8.80;26.10;;;;;;20664511;28;20038;-42
2023/11/11 18:14:44;;;;;;;7.03;4.13;;;8.60;49.90;;;;;;20662413;28;20038;-42
2023/11/11 18:24:45;;;;;;;7.30;4.10;;;8.50;46.30;;;;;;20666736;28;20034;-42
2023/11/11 18:34:45;;;;;;;8.40;4.65;;;8.50;35.30;;;;;;20667815;28;20048;-42
2023/11/11 18:44:46;;;;;;;10.57;4.38;;;8.50;36.70;;;;;;20666086;28;20041;-41
2023/11/11 18:54:46;;;;;;;16.50;7.07;;;8.40;46.50;;;;;;20663868;28;20046;-42
2023/11/11 19:04:47;;;;;;;12.23;4.47;;;8.40;62.60;;;;;;20634816;28;20460;-42
2023/11/11 19:14:48;;;;;;;10.77;5.32;;;8.50;78.90;;;;;;20638921;28;20176;-41
2023/11/11 19:24:50;;;;;;;8.85;4.50;;;8.40;95.80;;;;;;20633828;28;20503;-42
2023/11/11 19:34:50;;;;;;;9.50;4.80;;;8.30;99.90;;;;;;20638668;28;20046;-42
2023/11/11 19:44:51;;;;;;;11.20;7.38;;;8.20;99.90;;;;;;20639527;28;20569;-41
2023/11/11 19:54:51;;;;;;;8.45;5.13;;;8.20;99.90;;;;;;20636128;28;20068;-41
2023/11/11 20:04:52;;;;;;;7.53;4.47;;;8.30;99.90;;;;;;20640041;28;20049;-42
2023/11/11 20:14:53;;;;;;;8.97;4.40;;;8.50;95.40;;;;;;20627659;28;20549;-42
2023/11/11 20:24:53;;;;;;;9.23;4.65;;;8.40;99.20;;;;;;20623599;28;20844;-42
2023/11/11 20:34:54;;;;;;;7.25;4.97;;;8.30;99.90;;;;;;20624654;28;20050;-41
2023/11/11 20:44:54;;;;;;;9.95;4.28;;;8.20;99.90;;;;;;20628829;28;20053;-42
2023/11/11 20:54:55;;;;;;;10.52;5.65;;;7.90;99.90;;;;;;20624721;28;20225;-42
2023/11/11 21:05:00;;;;;;;7.43;4.47;;;7.60;99.90;;;;;;20631120;28;20046;-42
2023/11/11 21:15:02;;;;;;;11.75;5.38;;;7.40;99.90;;;;;;20640091;28;20077;-42
2023/11/11 21:25:04;;;;;;;11.55;6.38;;;7.30;99.90;;;;;;20645173;28;20093;-41
2023/11/11 21:35:05;;;;;;;10.90;6.72;;;7.50;99.90;;;;;;20640561;28;20873;-42
2023/11/11 21:45:06;;;;;;;9.95;5.97;;;7.60;99.90;;;;;;20646772;28;20445;-42
2023/11/11 21:55:07;;;;;;;7.72;5.45;;;7.80;99.90;;;;;;20648030;28;20061;-41
2023/11/11 22:05:07;;;;;;;7.40;5.45;;;7.80;99.90;;;;;;20650833;28;20411;-42
2023/11/11 22:15:08;;;;;;;8.90;5.07;;;8.00;99.90;;;;;;20661551;28;20458;-42
2023/11/11 22:25:10;;;;;;;10.55;5.85;;;8.00;99.90;;;;;;20650300;28;20412;-41
2023/11/11 22:35:11;;;;;;;11.27;5.47;;;8.20;99.90;;;;;;20661795;28;20046;-41
2023/11/11 22:45:12;;;;;;;10.77;5.90;;;8.30;99.90;;;;;;20669096;28;20288;-42
2023/11/11 22:55:13;;;;;;;10.45;6.68;;;8.20;99.90;;;;;;20666841;28;20045;-42
2023/11/11 23:05:16;;;;;;;10.07;5.97;;;8.30;99.90;;;;;;20650215;28;20038;-42
2023/11/11 23:15:17;;;;;;;10.88;6.45;;;8.20;99.90;;;;;;20639801;28;20465;-42
2023/11/11 23:25:18;;;;;;;9.35;5.43;;;8.20;99.90;;;;;;20633551;28;20065;-41
2023/11/11 23:35:18;;;;;;;11.45;6.15;;;8.00;99.90;;;;;;20633707;28;20076;-42
2023/11/11 23:45:19;;;;;;;9.07;5.57;;;8.00;99.90;;;;;;20630526;28;20505;-42
2023/11/11 23:55:19;;;;;;;8.98;5.80;;;7.90;99.90;;;;;;20628057;28;20092;-42
